sensor_id;sensor_type;location;lat;lon;timestamp;pressure;altitude;pressure_sealevel;temperature;humidity
41862;BME280;27537;57.134;-2.136;2023-08-01T00:01:37;98970.47;;;14.74;100.00
41862;BME280;27537;57.134;-2.136;2023-08-01T00:04:04;98986.84;;;14.78;100.00
41862;BME280;27537;57.134;-2.136;2023-08-01T00:06:31;98979.28;;;14.85;100.00
41862;BME280;27537;57.134;-2.136;2023-08-01T00:08:57;98977.41;;;14.75;100.00
41862;BME280;27537;57.134;-2.136;2023-08-01T00:11:24;98985.44;;;14.74;100.00
41862;BME280;27537;57.134;-2.136;2023-08-01T00:13:51;98988.66;;;14.77;100.00
41862;BME280;27537;57.134;-2.136;2023-08-01T00:16:17;98984.69;;;14.83;100.00
41862;BME280;27537;57.134;-2.136;2023-08-01T00:18:44;98983.84;;;14.83;100.00
41862;BME280;27537;57.134;-2.136;2023-08-01T00:21:11;98996.25;;;14.92;100.00
41862;BME280;27537;57.134;-2.136;2023-08-01T00:23:38;98994.31;;;14.94;100.00
41862;BME280;27537;57.134;-2.136;2023-08-01T00:26:05;99002.47;;;14.91;100.00
41862;BME280;27537;57.134;-2.136;2023-08-01T00:28:31;98978.34;;;14.86;100.00
41862;BME280;27537;57.134;-2.136;2023-08-01T00:31:05;98992.97;;;14.99;100.00
41862;BME280;27537;57.134;-2.136;2023-08-01T00:33:33;98993.94;;;14.98;100.00
41862;BME280;27537;57.134;-2.136;2023-08-01T00:36:00;98994.97;;;14.86;100.00
41862;BME280;27537;57.134;-2.136;2023-08-01T00:38:27;98998.19;;;14.90;100.00
41862;BME280;27537;57.134;-2.136;2023-08-01T00:40:54;98992.97;;;14.99;100.00
41862;BME280;27537;57.134;-2.136;2023-08-01T00:43:20;98994.78;;;14.99;100.00
41862;BME280;27537;57.134;-2.136;2023-08-01T00:45:48;98987.97;;;14.96;100.00
41862;BME280;27537;57.134;-2.136;2023-08-01T00:48:15;98991.34;;;15.08;100.00
41862;BME280;27537;57.134;-2.136;2023-08-01T00:50:41;98986.22;;;15.07;100.00
41862;BME280;27537;57.134;-2.136;2023-08-01T00:53:08;99002.22;;;15.15;100.00
41862;BME280;27537;57.134;-2.136;2023-08-01T00:55:35;98992.25;;;15.18;100.00
41862;BME280;27537;57.134;-2.136;2023-08-01T00:58:03;98988.91;;;15.16;100.00
41862;BME280;27537;57.134;-2.136;2023-08-01T01:00:29;98997.31;;;15.31;100.00
41862;BME280;27537;57.134;-2.136;2023-08-01T01:02:57;99001.19;;;15.27;100.00
41862;BME280;27537;57.134;-2.136;2023-08-01T01:05:24;98999.00;;;15.32;100.00
41862;BME280;27537;57.134;-2.136;2023-08-01T01:07:52;99015.19;;;15.28;100.00
41862;BME280;27537;57.134;-2.136;2023-08-01T01:10:19;99001.97;;;15.18;100.00
41862;BME280;27537;57.134;-2.136;2023-08-01T01:12:45;99007.28;;;15.28;100.00
41862;BME280;27537;57.134;-2.136;2023-08-01T01:15:14;99012.06;;;15.34;100.00
41862;BME280;27537;57.134;-2.136;2023-08-01T01:17:40;99011.38;;;15.32;100.00
41862;BME280;27537;57.134;-2.136;2023-08-01T01:20:07;99015.94;;;15.30;100.00
41862;BME280;27537;57.134;-2.136;2023-08-01T01:22:35;99021.06;;;15.31;100.00
41862;BME280;27537;57.134;-2.136;2023-08-01T01:25:03;99009.09;;;15.27;100.00
41862;BME280;27537;57.134;-2.136;2023-08-01T01:27:30;99025.63;;;15.29;100.00
41862;BME280;27537;57.134;-2.136;2023-08-01T01:29:58;99022.41;;;15.26;100.00
41862;BME280;27537;57.134;-2.136;2023-08-01T01:32:25;99024.00;;;15.38;100.00
41862;BME280;27537;57.134;-2.136;2023-08-01T01:34:54;99018.41;;;15.31;100.00
41862;BME280;27537;57.134;-2.136;2023-08-01T01:37:20;99019.75;;;15.47;100.00
41862;BME280;27537;57.134;-2.136;2023-08-01T01:39:47;99025.81;;;15.37;100.00
41862;BME280;27537;57.134;-2.136;2023-08-01T01:42:14;99004.22;;;15.23;100.00
41862;BME280;27537;57.134;-2.136;2023-08-01T01:44:40;99026.31;;;15.31;100.00
41862;BME280;27537;57.134;-2.136;2023-08-01T01:47:07;99028.47;;;15.37;100.00
41862;BME280;27537;57.134;-2.136;2023-08-01T01:49:34;99027.75;;;15.35;100.00
41862;BME280;27537;57.134;-2.136;2023-08-01T01:52:00;99028.97;;;15.31;100.00
41862;BME280;27537;57.134;-2.136;2023-08-01T01:54:27;99029.53;;;15.35;100.00
41862;BME280;27537;57.134;-2.136;2023-08-01T01:56:54;99030.41;;;15.35;100.00
41862;BME280;27537;57.134;-2.136;2023-08-01T01:59:20;99033.72;;;15.37;100.00
41862;BME280;27537;57.134;-2.136;2023-08-01T02:01:47;99038.75;;;15.41;100.00
41862;BME280;27537;57.134;-2.136;2023-08-01T02:04:13;99026.53;;;15.40;100.00
41862;BME280;27537;57.134;-2.136;2023-08-01T02:06:40;99027.06;;;15.33;100.00
41862;BME280;27537;57.134;-2.136;2023-08-01T02:09:07;99024.66;;;15.30;100.00
41862;BME280;27537;57.134;-2.136;2023-08-01T02:11:34;99022.59;;;15.34;100.00
41862;BME280;27537;57.134;-2.136;2023-08-01T02:14:01;99023.31;;;15.36;100.00
41862;BME280;27537;57.134;-2.136;2023-08-01T02:16:29;99021.25;;;15.40;100.00
41862;BME280;27537;57.134;-2.136;2023-08-01T02:18:56;99022.94;;;15.41;100.00
41862;BME280;27537;57.134;-2.136;2023-08-01T02:21:23;99033.06;;;15.45;100.00
41862;BME280;27537;57.134;-2.136;2023-08-01T02:23:49;99033.78;;;15.47;100.00
41862;BME280;27537;57.134;-2.136;2023-08-01T02:26:16;99022.94;;;15.41;100.00
41862;BME280;27537;57.134;-2.136;2023-08-01T02:28:43;99030.13;;;15.38;100.00
41862;BME280;27537;57.134;-2.136;2023-08-01T02:31:09;99036.69;;;15.44;100.00
41862;BME280;27537;57.134;-2.136;2023-08-01T02:33:36;99014.38;;;15.27;100.00
41862;BME280;27537;57.134;-2.136;2023-08-01T02:36:03;99026.41;;;15.41;100.00
41862;BME280;27537;57.134;-2.136;2023-08-01T02:38:30;99037.06;;;15.40;100.00
41862;BME280;27537;57.134;-2.136;2023-08-01T02:40:56;99035.91;;;15.32;100.00
41862;BME280;27537;57.134;-2.136;2023-08-01T02:43:23;99028.38;;;15.28;100.00
41862;BME280;27537;57.134;-2.136;2023-08-01T02:45:50;99044.16;;;15.39;100.00
41862;BME280;27537;57.134;-2.136;2023-08-01T02:48:17;99043.56;;;15.35;100.00
41862;BME280;27537;57.134;-2.136;2023-08-01T02:50:43;99036.75;;;15.33;100.00
41862;BME280;27537;57.134;-2.136;2023-08-01T02:53:10;99037.72;;;15.32;100.00
41862;BME280;27537;57.134;-2.136;2023-08-01T02:55:36;99042.03;;;15.33;100.00
41862;BME280;27537;57.134;-2.136;2023-08-01T02:58:03;99043.69;;;15.34;100.00
41862;BME280;27537;57.134;-2.136;2023-08-01T03:00:30;99049.47;;;15.28;100.00
41862;BME280;27537;57.134;-2.136;2023-08-01T03:02:58;99037.28;;;15.27;100.00
41862;BME280;27537;57.134;-2.136;2023-08-01T03:05:25;99047.56;;;15.30;100.00
41862;BME280;27537;57.134;-2.136;2023-08-01T03:07:51;99057.50;;;15.26;100.00
41862;BME280;27537;57.134;-2.136;2023-08-01T03:10:18;99063.69;;;15.36;100.00
41862;BME280;27537;57.134;-2.136;2023-08-01T03:13:01;99066.84;;;15.30;100.00
41862;BME280;27537;57.134;-2.136;2023-08-01T03:15:28;99059.19;;;15.27;100.00
41862;BME280;27537;57.134;-2.136;2023-08-01T03:17:54;99073.41;;;15.36;100.00
41862;BME280;27537;57.134;-2.136;2023-08-01T03:20:21;99065.06;;;15.31;100.00
41862;BME280;27537;57.134;-2.136;2023-08-01T03:22:49;99073.28;;;15.37;100.00
41862;BME280;27537;57.134;-2.136;2023-08-01T03:25:15;99074.53;;;15.33;100.00
41862;BME280;27537;57.134;-2.136;2023-08-01T03:27:42;99072.63;;;15.24;100.00
41862;BME280;27537;57.134;-2.136;2023-08-01T03:30:09;99073.72;;;15.22;100.00
41862;BME280;27537;57.134;-2.136;2023-08-01T03:32:36;99083.19;;;15.24;100.00
41862;BME280;27537;57.134;-2.136;2023-08-01T03:35:07;99086.66;;;15.25;100.00
41862;BME280;27537;57.134;-2.136;2023-08-01T03:37:33;99087.41;;;15.15;100.00
41862;BME280;27537;57.134;-2.136;2023-08-01T03:40:00;99088.00;;;15.19;100.00
41862;BME280;27537;57.134;-2.136;2023-08-01T03:42:27;99089.44;;;15.23;100.00
41862;BME280;27537;57.134;-2.136;2023-08-01T03:44:53;99094.38;;;15.16;100.00
41862;BME280;27537;57.134;-2.136;2023-08-01T03:47:20;99100.75;;;15.14;100.00
41862;BME280;27537;57.134;-2.136;2023-08-01T03:49:46;99104.66;;;15.19;100.00
41862;BME280;27537;57.134;-2.136;2023-08-01T03:52:14;99107.31;;;15.19;100.00
41862;BME280;27537;57.134;-2.136;2023-08-01T03:54:40;99110.06;;;15.18;100.00
41862;BME280;27537;57.134;-2.136;2023-08-01T03:57:07;99113.72;;;15.06;100.00
41862;BME280;27537;57.134;-2.136;2023-08-01T03:59:34;99115.56;;;15.15;100.00
41862;BME280;27537;57.134;-2.136;2023-08-01T04:02:00;99123.13;;;15.19;100.00
41862;BME280;27537;57.134;-2.136;2023-08-01T04:04:27;99123.50;;;15.15;100.00
41862;BME280;27537;57.134;-2.136;2023-08-01T04:06:54;99123.72;;;15.12;100.00
41862;BME280;27537;57.134;-2.136;2023-08-01T04:09:21;99121.84;;;15.14;100.00
41862;BME280;27537;57.134;-2.136;2023-08-01T04:11:48;99123.25;;;15.18;100.00
41862;BME280;27537;57.134;-2.136;2023-08-01T04:14:14;99123.72;;;15.12;100.00
41862;BME280;27537;57.134;-2.136;2023-08-01T04:16:41;99115.47;;;15.16;100.00
41862;BME280;27537;57.134;-2.136;2023-08-01T04:19:08;99124.72;;;15.11;100.00
41862;BME280;27537;57.134;-2.136;2023-08-01T04:21:36;99126.88;;;15.06;100.00
41862;BME280;27537;57.134;-2.136;2023-08-01T04:24:02;99131.91;;;15.09;100.00
41862;BME280;27537;57.134;-2.136;2023-08-01T04:26:29;99129.59;;;15.15;100.00
41862;BME280;27537;57.134;-2.136;2023-08-01T04:28:56;99136.53;;;15.16;100.00
41862;BME280;27537;57.134;-2.136;2023-08-01T04:31:22;99140.72;;;15.19;100.00
41862;BME280;27537;57.134;-2.136;2023-08-01T04:33:49;99129.94;;;15.22;100.00
41862;BME280;27537;57.134;-2.136;2023-08-01T04:36:16;99144.09;;;15.21;100.00
41862;BME280;27537;57.134;-2.136;2023-08-01T04:38:42;99155.22;;;15.25;100.00
41862;BME280;27537;57.134;-2.136;2023-08-01T04:41:09;99148.00;;;15.27;100.00
41862;BME280;27537;57.134;-2.136;2023-08-01T04:43:36;99147.13;;;15.37;100.00
41862;BME280;27537;57.134;-2.136;2023-08-01T04:46:02;99143.50;;;15.38;100.00
41862;BME280;27537;57.134;-2.136;2023-08-01T04:48:29;99135.59;;;15.38;100.00
41862;BME280;27537;57.134;-2.136;2023-08-01T04:50:56;99141.84;;;15.37;100.00
41862;BME280;27537;57.134;-2.136;2023-08-01T04:53:22;99144.63;;;15.36;100.00
41862;BME280;27537;57.134;-2.136;2023-08-01T04:55:50;99137.28;;;15.40;100.00
41862;BME280;27537;57.134;-2.136;2023-08-01T04:58:17;99141.19;;;15.45;100.00
41862;BME280;27537;57.134;-2.136;2023-08-01T05:00:43;99147.59;;;15.43;100.00
41862;BME280;27537;57.134;-2.136;2023-08-01T05:03:10;99146.09;;;15.50;100.00
41862;BME280;27537;57.134;-2.136;2023-08-01T05:05:37;99145.91;;;15.42;100.00
41862;BME280;27537;57.134;-2.136;2023-08-01T05:08:03;99150.69;;;15.48;100.00
41862;BME280;27537;57.134;-2.136;2023-08-01T05:10:30;99146.81;;;15.52;100.00
41862;BME280;27537;57.134;-2.136;2023-08-01T05:12:57;99140.97;;;15.48;100.00
41862;BME280;27537;57.134;-2.136;2023-08-01T05:15:23;99147.75;;;15.51;100.00
41862;BME280;27537;57.134;-2.136;2023-08-01T05:17:52;99149.69;;;15.49;100.00
41862;BME280;27537;57.134;-2.136;2023-08-01T05:20:19;99151.56;;;15.58;100.00
41862;BME280;27537;57.134;-2.136;2023-08-01T05:22:45;99155.75;;;15.61;100.00
41862;BME280;27537;57.134;-2.136;2023-08-01T05:25:12;99165.34;;;15.62;100.00
41862;BME280;27537;57.134;-2.136;2023-08-01T05:27:39;99166.31;;;15.61;100.00
41862;BME280;27537;57.134;-2.136;2023-08-01T05:30:06;99170.81;;;15.70;100.00
41862;BME280;27537;57.134;-2.136;2023-08-01T05:32:32;99163.38;;;15.75;100.00
41862;BME280;27537;57.134;-2.136;2023-08-01T05:34:59;99175.50;;;15.78;100.00
41862;BME280;27537;57.134;-2.136;2023-08-01T05:37:26;99174.25;;;15.82;100.00
41862;BME280;27537;57.134;-2.136;2023-08-01T05:39:52;99181.47;;;15.80;100.00
41862;BME280;27537;57.134;-2.136;2023-08-01T05:42:19;99182.31;;;15.80;100.00
41862;BME280;27537;57.134;-2.136;2023-08-01T05:44:46;99186.63;;;15.81;100.00
41862;BME280;27537;57.134;-2.136;2023-08-01T05:47:12;99178.97;;;15.78;100.00
41862;BME280;27537;57.134;-2.136;2023-08-01T05:49:39;99188.75;;;15.87;100.00
41862;BME280;27537;57.134;-2.136;2023-08-01T05:52:07;99201.59;;;15.81;100.00
41862;BME280;27537;57.134;-2.136;2023-08-01T05:54:34;99195.28;;;15.93;100.00
41862;BME280;27537;57.134;-2.136;2023-08-01T05:57:01;99199.66;;;16.04;100.00
41862;BME280;27537;57.134;-2.136;2023-08-01T05:59:27;99207.66;;;15.92;100.00
41862;BME280;27537;57.134;-2.136;2023-08-01T06:01:54;99211.25;;;15.91;100.00
41862;BME280;27537;57.134;-2.136;2023-08-01T06:04:21;99208.75;;;15.90;100.00
41862;BME280;27537;57.134;-2.136;2023-08-01T06:06:47;99217.00;;;15.97;100.00
41862;BME280;27537;57.134;-2.136;2023-08-01T06:09:14;99213.78;;;15.93;100.00
41862;BME280;27537;57.134;-2.136;2023-08-01T06:11:41;99219.59;;;15.87;100.00
41862;BME280;27537;57.134;-2.136;2023-08-01T06:14:09;99208.75;;;15.90;100.00
41862;BME280;27537;57.134;-2.136;2023-08-01T06:16:36;99219.84;;;16.05;100.00
41862;BME280;27537;57.134;-2.136;2023-08-01T06:19:02;99213.44;;;16.07;100.00
41862;BME280;27537;57.134;-2.136;2023-08-01T06:21:29;99214.75;;;16.13;100.00
41862;BME280;27537;57.134;-2.136;2023-08-01T06:23:56;99208.50;;;15.93;100.00
41862;BME280;27537;57.134;-2.136;2023-08-01T06:26:22;99216.38;;;16.04;100.00
41862;BME280;27537;57.134;-2.136;2023-08-01T06:28:49;99217.25;;;15.93;100.00
41862;BME280;27537;57.134;-2.136;2023-08-01T06:31:16;99217.75;;;16.08;100.00
41862;BME280;27537;57.134;-2.136;2023-08-01T06:33:42;99226.50;;;16.09;100.00
41862;BME280;27537;57.134;-2.136;2023-08-01T06:36:09;99214.03;;;15.90;100.00
41862;BME280;27537;57.134;-2.136;2023-08-01T06:38:36;99228.31;;;16.08;100.00
41862;BME280;27537;57.134;-2.136;2023-08-01T06:41:02;99224.91;;;16.18;100.00
41862;BME280;27537;57.134;-2.136;2023-08-01T06:43:29;99233.59;;;16.29;100.00
41862;BME280;27537;57.134;-2.136;2023-08-01T06:45:56;99235.81;;;16.34;100.00
41862;BME280;27537;57.134;-2.136;2023-08-01T06:48:23;99224.44;;;16.33;100.00
41862;BME280;27537;57.134;-2.136;2023-08-01T06:50:49;99234.50;;;16.49;100.00
41862;BME280;27537;57.134;-2.136;2023-08-01T06:53:16;99234.78;;;16.46;100.00
41862;BME280;27537;57.134;-2.136;2023-08-01T06:55:43;99242.00;;;16.44;100.00
41862;BME280;27537;57.134;-2.136;2023-08-01T06:58:09;99240.59;;;16.40;100.00
41862;BME280;27537;57.134;-2.136;2023-08-01T07:00:36;99237.16;;;16.49;100.00
41862;BME280;27537;57.134;-2.136;2023-08-01T07:03:03;99241.69;;;16.38;100.00
41862;BME280;27537;57.134;-2.136;2023-08-01T07:05:29;99244.13;;;16.50;100.00
41862;BME280;27537;57.134;-2.136;2023-08-01T07:07:56;99237.03;;;16.51;100.00
41862;BME280;27537;57.134;-2.136;2023-08-01T07:10:24;99242.69;;;16.46;100.00
41862;BME280;27537;57.134;-2.136;2023-08-01T07:12:51;99238.97;;;16.49;100.00
41862;BME280;27537;57.134;-2.136;2023-08-01T07:15:17;99243.59;;;16.57;100.00
41862;BME280;27537;57.134;-2.136;2023-08-01T07:17:44;99234.03;;;16.65;100.00
41862;BME280;27537;57.134;-2.136;2023-08-01T07:20:11;99254.50;;;16.73;100.00
41862;BME280;27537;57.134;-2.136;2023-08-01T07:22:38;99249.59;;;16.89;100.00
41862;BME280;27537;57.134;-2.136;2023-08-01T07:25:05;99249.38;;;16.81;100.00
41862;BME280;27537;57.134;-2.136;2023-08-01T07:27:31;99258.56;;;16.77;100.00
41862;BME280;27537;57.134;-2.136;2023-08-01T07:29:58;99261.59;;;16.73;100.00
41862;BME280;27537;57.134;-2.136;2023-08-01T07:32:25;99262.00;;;16.99;100.00
41862;BME280;27537;57.134;-2.136;2023-08-01T07:34:51;99264.56;;;17.20;100.00
41862;BME280;27537;57.134;-2.136;2023-08-01T07:37:18;99259.81;;;17.33;100.00
41862;BME280;27537;57.134;-2.136;2023-08-01T07:39:44;99273.94;;;17.53;100.00
41862;BME280;27537;57.134;-2.136;2023-08-01T07:42:11;99267.41;;;17.48;100.00
41862;BME280;27537;57.134;-2.136;2023-08-01T07:44:38;99270.44;;;17.72;100.00
41862;BME280;27537;57.134;-2.136;2023-08-01T07:47:05;99280.94;;;18.03;100.00
41862;BME280;27537;57.134;-2.136;2023-08-01T07:49:31;99280.22;;;18.20;100.00
41862;BME280;27537;57.134;-2.136;2023-08-01T07:51:58;99288.06;;;18.50;100.00
41862;BME280;27537;57.134;-2.136;2023-08-01T07:54:24;99285.91;;;18.73;100.00
41862;BME280;27537;57.134;-2.136;2023-08-01T07:56:51;99288.81;;;19.17;100.00
41862;BME280;27537;57.134;-2.136;2023-08-01T07:59:18;99289.19;;;19.22;100.00
41862;BME280;27537;57.134;-2.136;2023-08-01T08:01:44;99289.31;;;19.48;100.00
41862;BME280;27537;57.134;-2.136;2023-08-01T08:04:11;99294.75;;;19.75;100.00
41862;BME280;27537;57.134;-2.136;2023-08-01T08:06:38;99294.22;;;19.89;100.00
41862;BME280;27537;57.134;-2.136;2023-08-01T08:09:05;99300.66;;;20.04;100.00
41862;BME280;27537;57.134;-2.136;2023-08-01T08:11:32;99294.13;;;19.99;100.00
41862;BME280;27537;57.134;-2.136;2023-08-01T08:13:59;99307.00;;;20.29;100.00
41862;BME280;27537;57.134;-2.136;2023-08-01T08:16:26;99312.91;;;20.23;100.00
41862;BME280;27537;57.134;-2.136;2023-08-01T08:18:53;99316.22;;;20.43;100.00
41862;BME280;27537;57.134;-2.136;2023-08-01T08:21:20;99310.66;;;20.81;100.00
41862;BME280;27537;57.134;-2.136;2023-08-01T08:23:47;99302.16;;;20.77;100.00
41862;BME280;27537;57.134;-2.136;2023-08-01T08:26:13;99317.31;;;20.85;100.00
41862;BME280;27537;57.134;-2.136;2023-08-01T08:28:40;99315.97;;;20.81;100.00
41862;BME280;27537;57.134;-2.136;2023-08-01T08:31:08;99310.94;;;21.04;100.00
41862;BME280;27537;57.134;-2.136;2023-08-01T08:33:36;99322.97;;;20.38;100.00
41862;BME280;27537;57.134;-2.136;2023-08-01T08:36:02;99328.03;;;20.23;100.00
41862;BME280;27537;57.134;-2.136;2023-08-01T08:38:29;99320.34;;;20.20;100.00
41862;BME280;27537;57.134;-2.136;2023-08-01T08:41:09;99318.41;;;20.04;100.00
41862;BME280;27537;57.134;-2.136;2023-08-01T08:43:37;99319.91;;;20.24;100.00
41862;BME280;27537;57.134;-2.136;2023-08-01T08:46:05;99315.34;;;20.17;100.00
41862;BME280;27537;57.134;-2.136;2023-08-01T08:48:32;99313.66;;;20.60;100.00
41862;BME280;27537;57.134;-2.136;2023-08-01T08:51:01;99308.31;;;20.78;100.00
41862;BME280;27537;57.134;-2.136;2023-08-01T08:53:30;99327.16;;;20.40;100.00
41862;BME280;27537;57.134;-2.136;2023-08-01T08:55:58;99322.72;;;20.67;100.00
41862;BME280;27537;57.134;-2.136;2023-08-01T08:58:25;99310.44;;;20.48;100.00
41862;BME280;27537;57.134;-2.136;2023-08-01T09:01:00;99306.44;;;20.70;100.00
41862;BME280;27537;57.134;-2.136;2023-08-01T09:03:28;99311.16;;;20.32;100.00
41862;BME280;27537;57.134;-2.136;2023-08-01T09:06:02;99310.03;;;20.35;100.00
41862;BME280;27537;57.134;-2.136;2023-08-01T09:08:35;99317.22;;;20.42;100.00
41862;BME280;27537;57.134;-2.136;2023-08-01T09:11:03;99308.81;;;20.55;100.00
41862;BME280;27537;57.134;-2.136;2023-08-01T09:13:31;99316.31;;;20.34;100.00
41862;BME280;27537;57.134;-2.136;2023-08-01T09:16:01;99290.31;;;19.65;100.00
41862;BME280;27537;57.134;-2.136;2023-08-01T09:18:29;99297.25;;;19.94;100.00
41862;BME280;27537;57.134;-2.136;2023-08-01T09:20:56;99315.16;;;19.92;100.00
41862;BME280;27537;57.134;-2.136;2023-08-01T09:23:28;99303.84;;;19.90;100.00
41862;BME280;27537;57.134;-2.136;2023-08-01T09:25:57;99316.03;;;20.01;100.00
41862;BME280;27537;57.134;-2.136;2023-08-01T09:28:26;99310.44;;;19.86;100.00
41862;BME280;27537;57.134;-2.136;2023-08-01T09:30:55;99321.84;;;20.40;100.00
41862;BME280;27537;57.134;-2.136;2023-08-01T09:33:22;99316.72;;;20.21;100.00
41862;BME280;27537;57.134;-2.136;2023-08-01T09:35:50;99322.88;;;20.21;100.00
41862;BME280;27537;57.134;-2.136;2023-08-01T09:38:20;99312.34;;;20.12;100.00
41862;BME280;27537;57.134;-2.136;2023-08-01T09:40:47;99313.69;;;20.16;100.00
41862;BME280;27537;57.134;-2.136;2023-08-01T09:43:13;99326.28;;;20.32;100.00
41862;BME280;27537;57.134;-2.136;2023-08-01T09:45:53;99325.78;;;20.10;100.00
41862;BME280;27537;57.134;-2.136;2023-08-01T09:48:25;99323.44;;;19.89;100.00
41862;BME280;27537;57.134;-2.136;2023-08-01T09:51:06;99314.00;;;20.13;100.00
41862;BME280;27537;57.134;-2.136;2023-08-01T09:53:34;99318.59;;;20.28;100.00
41862;BME280;27537;57.134;-2.136;2023-08-01T09:56:01;99320.53;;;20.44;100.00
41862;BME280;27537;57.134;-2.136;2023-08-01T09:58:33;99316.50;;;20.14;100.00
41862;BME280;27537;57.134;-2.136;2023-08-01T10:01:03;99311.28;;;20.04;100.00
41862;BME280;27537;57.134;-2.136;2023-08-01T10:03:30;99325.25;;;20.33;100.00
41862;BME280;27537;57.134;-2.136;2023-08-01T10:05:58;99311.34;;;20.13;100.00
41862;BME280;27537;57.134;-2.136;2023-08-01T10:08:48;99316.22;;;20.70;100.00
41862;BME280;27537;57.134;-2.136;2023-08-01T10:11:18;99328.78;;;20.33;100.00
41862;BME280;27537;57.134;-2.136;2023-08-01T10:13:46;99324.59;;;20.57;100.00
41862;BME280;27537;57.134;-2.136;2023-08-01T10:16:15;99337.88;;;20.30;100.00
41862;BME280;27537;57.134;-2.136;2023-08-01T10:18:43;99338.72;;;20.13;100.00
41862;BME280;27537;57.134;-2.136;2023-08-01T10:21:16;99345.84;;;20.30;100.00
41862;BME280;27537;57.134;-2.136;2023-08-01T10:23:45;99317.34;;;19.97;100.00
41862;BME280;27537;57.134;-2.136;2023-08-01T10:26:13;99347.84;;;20.28;100.00
41862;BME280;27537;57.134;-2.136;2023-08-01T10:28:42;99343.31;;;20.65;100.00
41862;BME280;27537;57.134;-2.136;2023-08-01T10:31:17;99341.56;;;20.56;100.00
41862;BME280;27537;57.134;-2.136;2023-08-01T10:33:47;99347.31;;;20.25;100.00
41862;BME280;27537;57.134;-2.136;2023-08-01T10:36:22;99340.22;;;20.34;100.00
41862;BME280;27537;57.134;-2.136;2023-08-01T10:39:00;99345.47;;;20.43;100.00
41862;BME280;27537;57.134;-2.136;2023-08-01T10:41:31;99347.41;;;20.59;100.00
41862;BME280;27537;57.134;-2.136;2023-08-01T10:44:08;99346.19;;;20.54;100.00
41862;BME280;27537;57.134;-2.136;2023-08-01T10:46:59;99353.16;;;20.28;100.00
41862;BME280;27537;57.134;-2.136;2023-08-01T10:49:40;99345.88;;;20.57;100.00
41862;BME280;27537;57.134;-2.136;2023-08-01T10:52:20;99345.97;;;20.65;100.00
41862;BME280;27537;57.134;-2.136;2023-08-01T10:55:00;99352.47;;;20.26;100.00
41862;BME280;27537;57.134;-2.136;2023-08-01T10:57:34;99350.00;;;20.51;100.00
41862;BME280;27537;57.134;-2.136;2023-08-01T11:00:05;99344.75;;;20.59;100.00
41862;BME280;27537;57.134;-2.136;2023-08-01T11:02:41;99344.53;;;20.53;100.00
41862;BME280;27537;57.134;-2.136;2023-08-01T11:05:12;99333.84;;;20.44;100.00
41862;BME280;27537;57.134;-2.136;2023-08-01T11:07:39;99329.72;;;20.24;100.00
41862;BME280;27537;57.134;-2.136;2023-08-01T11:12:42;99345.47;;;20.25;100.00
41862;BME280;27537;57.134;-2.136;2023-08-01T11:15:11;99349.75;;;20.18;100.00
41862;BME280;27537;57.134;-2.136;2023-08-01T11:17:45;99346.44;;;20.42;100.00
41862;BME280;27537;57.134;-2.136;2023-08-01T11:20:14;99344.31;;;20.46;100.00
41862;BME280;27537;57.134;-2.136;2023-08-01T11:25:34;99332.19;;;20.70;100.00
41862;BME280;27537;57.134;-2.136;2023-08-01T11:28:08;99334.47;;;20.38;100.00
41862;BME280;27537;57.134;-2.136;2023-08-01T11:30:35;99336.59;;;20.61;100.00
41862;BME280;27537;57.134;-2.136;2023-08-01T11:33:12;99348.28;;;20.42;100.00
41862;BME280;27537;57.134;-2.136;2023-08-01T11:35:40;99328.19;;;20.65;100.00
41862;BME280;27537;57.134;-2.136;2023-08-01T11:38:07;99344.38;;;20.80;100.00
41862;BME280;27537;57.134;-2.136;2023-08-01T11:40:34;99340.06;;;20.79;100.00
41862;BME280;27537;57.134;-2.136;2023-08-01T11:43:01;99342.97;;;20.94;100.00
41862;BME280;27537;57.134;-2.136;2023-08-01T11:45:27;99331.38;;;20.69;100.00
41862;BME280;27537;57.134;-2.136;2023-08-01T11:47:54;99341.09;;;20.60;100.00
41862;BME280;27537;57.134;-2.136;2023-08-01T11:50:23;99352.94;;;20.66;100.00
41862;BME280;27537;57.134;-2.136;2023-08-01T11:52:54;99347.22;;;20.79;100.00
41862;BME280;27537;57.134;-2.136;2023-08-01T11:55:27;99354.31;;;20.70;100.00
41862;BME280;27537;57.134;-2.136;2023-08-01T11:57:57;99354.50;;;20.33;100.00
41862;BME280;27537;57.134;-2.136;2023-08-01T12:00:27;99358.94;;;20.06;100.00
41862;BME280;27537;57.134;-2.136;2023-08-01T12:03:07;99360.69;;;20.33;100.00
41862;BME280;27537;57.134;-2.136;2023-08-01T12:05:40;99352.72;;;20.59;100.00
41862;BME280;27537;57.134;-2.136;2023-08-01T12:08:14;99354.69;;;20.57;100.00
41862;BME280;27537;57.134;-2.136;2023-08-01T12:10:43;99356.66;;;20.11;100.00
41862;BME280;27537;57.134;-2.136;2023-08-01T12:13:23;99358.16;;;20.32;100.00
41862;BME280;27537;57.134;-2.136;2023-08-01T12:15:51;99362.25;;;20.44;100.00
41862;BME280;27537;57.134;-2.136;2023-08-01T12:18:25;99360.00;;;20.31;100.00
41862;BME280;27537;57.134;-2.136;2023-08-01T12:20:55;99357.97;;;20.51;100.00
41862;BME280;27537;57.134;-2.136;2023-08-01T12:23:22;99351.50;;;20.54;100.00
41862;BME280;27537;57.134;-2.136;2023-08-01T12:25:48;99354.00;;;20.55;100.00
41862;BME280;27537;57.134;-2.136;2023-08-01T12:28:16;99346.38;;;20.78;100.00
41862;BME280;27537;57.134;-2.136;2023-08-01T12:30:43;99341.72;;;20.54;100.00
41862;BME280;27537;57.134;-2.136;2023-08-01T12:33:10;99332.69;;;20.65;100.00
41862;BME280;27537;57.134;-2.136;2023-08-01T12:35:41;99338.91;;;20.56;100.00
41862;BME280;27537;57.134;-2.136;2023-08-01T12:38:08;99356.00;;;20.53;100.00
41862;BME280;27537;57.134;-2.136;2023-08-01T12:40:36;99360.84;;;20.58;100.00
41862;BME280;27537;57.134;-2.136;2023-08-01T12:43:03;99344.38;;;20.80;100.00
41862;BME280;27537;57.134;-2.136;2023-08-01T12:45:29;99348.84;;;20.72;100.00
41862;BME280;27537;57.134;-2.136;2023-08-01T12:47:56;99354.72;;;20.39;100.00
41862;BME280;27537;57.134;-2.136;2023-08-01T12:50:23;99354.78;;;20.47;100.00